createdAt,value
2019-02-18T00:00:44.932Z,88138.12
2019-02-18T00:03:11.685Z,88137.86
2019-02-18T00:05:38.461Z,88136.11
2019-02-18T00:08:05.197Z,88135.14
2019-02-18T00:10:31.974Z,88134.19
2019-02-18T00:12:58.689Z,88130.80
2019-02-18T00:15:25.409Z,88126.45
2019-02-18T00:17:52.204Z,88126.98
2019-02-18T00:20:18.949Z,88123.17
2019-02-18T00:22:45.677Z,88125.75
2019-02-18T00:25:12.427Z,88124.52
2019-02-18T00:27:39.176Z,88128.16
2019-02-18T00:30:07.466Z,88121.70
2019-02-18T00:32:34.183Z,88123.59
2019-02-18T00:35:00.911Z,88126.73
2019-02-18T00:37:27.717Z,88124.47
2019-02-18T00:39:54.448Z,88121.48
2019-02-18T00:42:21.200Z,88122.72
2019-02-18T00:44:48.003Z,88125.76
2019-02-18T00:47:14.725Z,88119.85
2019-02-18T00:49:41.482Z,88120.11
2019-02-18T00:52:08.297Z,88120.63
2019-02-18T00:54:35.028Z,88115.00
2019-02-18T00:57:01.772Z,88113.25
2019-02-18T00:59:28.539Z,88113.77
2019-02-18T01:01:55.287Z,88108.11
2019-02-18T01:04:22.042Z,88108.63
2019-02-18T01:06:48.845Z,88104.81
2019-02-18T01:09:15.574Z,88114.89
2019-02-18T01:11:42.379Z,88107.98
2019-02-18T01:14:09.098Z,88107.75
2019-02-18T01:16:35.830Z,88110.09
2019-02-18T01:19:02.609Z,88107.25
2019-02-18T01:21:29.331Z,88103.34
2019-02-18T01:23:56.067Z,88104.61
2019-02-18T01:26:22.887Z,88100.22
2019-02-18T01:28:49.611Z,88102.56
2019-02-18T01:31:16.342Z,88093.88
2019-02-18T01:33:43.129Z,88099.83
2019-02-18T01:36:09.862Z,88094.46
2019-02-18T01:38:36.578Z,88093.97
2019-02-18T01:41:03.325Z,88094.27
2019-02-18T01:43:30.054Z,88089.91
2019-02-18T01:45:56.877Z,88090.99
2019-02-18T01:48:23.589Z,88085.03
2019-02-18T01:50:50.322Z,88085.30
2019-02-18T01:53:17.156Z,88085.55
2019-02-18T01:55:43.887Z,88079.13
2019-02-18T01:58:10.617Z,88083.80
2019-02-18T02:00:37.403Z,88079.70
2019-02-18T02:03:04.136Z,88073.28
2019-02-18T02:05:30.863Z,88072.48
2019-02-18T02:07:57.631Z,88068.61
2019-02-18T02:10:24.557Z,88071.44
2019-02-18T02:12:59.720Z,88063.22
2019-02-18T02:15:26.632Z,88061.20
2019-02-18T02:17:53.386Z,88061.44
2019-02-18T02:20:20.154Z,88060.50
2019-02-18T02:22:46.868Z,88062.28
2019-02-18T02:25:13.686Z,88060.80
2019-02-18T02:27:40.462Z,88055.98
2019-02-18T02:30:08.970Z,88056.00
2019-02-18T02:32:35.773Z,88062.16
2019-02-18T02:35:02.474Z,88058.31
2019-02-18T02:37:29.212Z,88059.13
2019-02-18T02:39:55.962Z,88058.88
2019-02-18T02:42:22.706Z,88048.35
2019-02-18T02:44:49.479Z,88047.41
2019-02-18T02:47:16.241Z,88056.72
2019-02-18T02:49:42.989Z,88052.34
2019-02-18T02:52:09.820Z,88043.59
2019-02-18T02:54:36.571Z,88049.48
2019-02-18T02:57:03.293Z,88037.41
2019-02-18T02:59:30.181Z,88041.27
2019-02-18T03:01:56.894Z,88043.05
2019-02-18T03:04:23.653Z,88041.03
2019-02-18T03:06:50.430Z,88034.27
2019-02-18T03:09:17.139Z,88031.95
2019-02-18T03:11:43.870Z,88026.85
2019-02-18T03:14:10.641Z,88036.13
2019-02-18T03:16:37.412Z,88033.58
2019-02-18T03:19:04.191Z,88026.11
2019-02-18T03:21:30.940Z,88030.97
2019-02-18T03:23:57.660Z,88029.72
2019-02-18T03:26:24.419Z,88030.03
2019-02-18T03:29:01.896Z,88032.12
2019-02-18T03:31:28.679Z,88031.39
2019-02-18T03:34:06.301Z,88035.52
2019-02-18T03:36:33.089Z,88031.12
2019-02-18T03:38:59.829Z,88027.80
2019-02-18T03:41:26.543Z,88033.75
2019-02-18T03:43:53.353Z,88036.83
2019-02-18T03:46:20.115Z,88034.22
2019-02-18T03:48:46.818Z,88028.85
2019-02-18T03:51:13.593Z,88028.85
2019-02-18T03:53:40.371Z,88030.12
2019-02-18T03:56:07.157Z,88027.55
2019-02-18T03:58:33.886Z,88035.29
2019-02-18T04:01:00.658Z,88025.78
2019-02-18T04:03:27.404Z,88027.90
2019-02-18T04:05:54.141Z,88034.05
2019-02-18T04:08:20.867Z,88029.20
2019-02-18T04:10:47.611Z,88029.98
2019-02-18T04:13:14.317Z,88031.02
2019-02-18T04:15:41.104Z,88026.91
2019-02-18T04:18:07.832Z,88024.33
2019-02-18T04:20:34.558Z,88027.16
2019-02-18T04:23:01.357Z,88021.28
2019-02-18T04:25:28.106Z,88019.93
2019-02-18T04:27:54.837Z,88024.34
2019-02-18T04:30:21.604Z,88021.80
2019-02-18T04:32:48.345Z,88020.52
2019-02-18T04:35:15.182Z,88017.72
2019-02-18T04:37:41.975Z,88021.08
2019-02-18T04:40:08.694Z,88021.63
2019-02-18T04:42:35.459Z,88014.91
2019-02-18T04:45:02.808Z,88020.08
2019-02-18T04:47:29.543Z,88022.91
2019-02-18T04:49:56.333Z,88020.37
2019-02-18T04:52:23.073Z,88015.52
2019-02-18T04:54:49.849Z,88016.55
2019-02-18T04:57:16.629Z,88017.86
2019-02-18T04:59:43.380Z,88020.44
2019-02-18T05:02:10.175Z,88020.73
2019-02-18T05:04:36.947Z,88017.66
2019-02-18T05:07:03.660Z,88015.36
2019-02-18T05:09:30.470Z,88017.17
2019-02-18T05:11:57.220Z,88020.52
2019-02-18T05:14:23.935Z,88014.83
2019-02-18T05:16:50.716Z,88018.47
2019-02-18T05:19:17.474Z,88017.20
2019-02-18T05:21:44.232Z,88014.91
2019-02-18T05:24:10.988Z,88015.15
2019-02-18T05:26:37.742Z,88012.34
2019-02-18T05:29:04.542Z,88014.94
2019-02-18T05:31:31.279Z,88012.14
2019-02-18T05:33:58.022Z,88014.72
2019-02-18T05:36:24.814Z,88013.66
2019-02-18T05:38:51.531Z,88003.87
2019-02-18T05:41:18.327Z,88012.87
2019-02-18T05:43:45.046Z,88011.59
2019-02-18T05:46:11.768Z,88010.30
2019-02-18T05:48:38.559Z,88008.77
2019-02-18T05:51:05.305Z,88009.77
2019-02-18T05:53:32.021Z,88004.37
2019-02-18T05:55:58.838Z,88006.23
2019-02-18T05:58:25.573Z,88004.19
2019-02-18T06:00:52.289Z,88007.55
2019-02-18T06:03:19.104Z,88008.60
2019-02-18T06:05:45.837Z,88005.78
2019-02-18T06:08:12.550Z,88008.65
2019-02-18T06:10:39.326Z,88006.58
2019-02-18T06:13:06.068Z,88006.59
2019-02-18T06:15:32.795Z,88005.09
2019-02-18T06:17:59.599Z,88010.00
2019-02-18T06:20:26.336Z,88010.26
2019-02-18T06:22:53.064Z,88012.31
2019-02-18T06:25:19.813Z,88012.31
2019-02-18T06:27:46.576Z,88011.30
2019-02-18T06:30:13.339Z,88018.74
2019-02-18T06:32:40.091Z,88016.47
2019-02-18T06:35:06.790Z,88018.25
2019-02-18T06:37:33.592Z,88022.09
2019-02-18T06:40:00.369Z,88019.80
2019-02-18T06:42:27.132Z,88030.61
2019-02-18T06:44:53.912Z,88023.68
2019-02-18T06:47:20.633Z,88027.03
2019-02-18T06:49:47.415Z,88024.48
2019-02-18T06:52:14.152Z,88026.27
2019-02-18T06:54:40.866Z,88026.05
2019-02-18T06:57:07.691Z,88032.47
2019-02-18T06:59:34.415Z,88024.99
2019-02-18T07:02:01.179Z,88027.05
2019-02-18T07:04:27.907Z,88024.98
2019-02-18T07:06:54.655Z,88032.45
2019-02-18T07:09:21.433Z,88030.61
2019-02-18T07:11:48.183Z,88023.68
2019-02-18T07:14:14.900Z,88026.22
2019-02-18T07:16:41.722Z,88034.66
2019-02-18T07:19:08.444Z,88028.69
2019-02-18T07:21:35.211Z,88033.03
2019-02-18T07:24:01.914Z,88032.97
2019-02-18T07:26:28.638Z,88027.26
2019-02-18T07:28:55.413Z,88031.30
2019-02-18T07:31:22.143Z,88030.20
2019-02-18T07:33:48.914Z,88023.67
2019-02-18T07:36:15.665Z,88017.95
2019-02-18T07:38:42.357Z,88021.97
2019-02-18T07:41:09.127Z,88019.28
2019-02-18T07:43:35.872Z,88015.86
2019-02-18T07:46:02.657Z,88014.67
2019-02-18T07:48:29.386Z,88018.69
2019-02-18T07:50:56.139Z,88010.12
2019-02-18T07:53:22.920Z,88010.75
2019-02-18T07:55:49.627Z,88009.54
2019-02-18T07:58:19.649Z,88003.68
2019-02-18T08:00:46.409Z,87997.61
2019-02-18T08:03:13.131Z,87998.05
2019-02-18T08:05:39.873Z,87994.74
2019-02-18T08:08:06.680Z,87995.42
2019-02-18T08:10:33.397Z,87989.36
2019-02-18T08:13:00.110Z,87988.20
2019-02-18T08:15:26.888Z,87987.27
2019-02-18T08:17:53.622Z,87982.41
2019-02-18T08:20:20.335Z,87978.88
2019-02-18T08:22:47.128Z,87981.73
2019-02-18T08:25:13.822Z,87973.78
2019-02-18T08:27:40.537Z,87975.22
2019-02-18T08:30:12.697Z,87973.00
2019-02-18T08:32:39.426Z,87970.70
2019-02-18T08:35:06.344Z,87973.45
2019-02-18T08:37:33.063Z,87961.10
2019-02-18T08:39:59.787Z,87963.55
2019-02-18T08:42:26.557Z,87962.65
2019-02-18T08:44:53.266Z,87963.82
2019-02-18T08:47:20.045Z,87959.11
2019-02-18T08:49:46.783Z,87955.88
2019-02-18T08:52:13.499Z,87958.03
2019-02-18T08:54:40.298Z,87953.19
2019-02-18T08:57:07.984Z,87947.56
2019-02-18T08:59:34.780Z,87951.47
2019-02-18T09:02:01.580Z,87950.77
2019-02-18T09:04:28.333Z,87951.39
2019-02-18T09:06:55.076Z,87948.77
2019-02-18T09:09:21.833Z,87944.36
2019-02-18T09:11:48.861Z,87938.94
2019-02-18T09:14:15.680Z,87938.96
2019-02-18T09:16:42.422Z,87935.02
2019-02-18T09:19:09.139Z,87928.98
2019-02-18T09:21:35.939Z,87935.08
2019-02-18T09:24:02.687Z,87922.34
2019-02-18T09:26:29.385Z,87918.17
2019-02-18T09:28:56.206Z,87914.55
2019-02-18T09:31:22.906Z,87916.12
2019-02-18T09:33:49.657Z,87909.59
2019-02-18T09:36:16.455Z,87909.33
2019-02-18T09:38:43.181Z,87905.67
2019-02-18T09:41:09.909Z,87902.88
2019-02-18T09:43:36.717Z,87904.18
2019-02-18T09:46:03.457Z,87901.12
2019-02-18T09:48:30.186Z,87908.64
2019-02-18T09:50:56.995Z,87898.25
2019-02-18T09:53:23.710Z,87902.15
2019-02-18T09:55:50.442Z,87902.17
2019-02-18T09:58:17.203Z,87897.81
2019-02-18T10:00:44.002Z,87895.28
2019-02-18T10:03:10.795Z,87892.61
2019-02-18T10:05:37.528Z,87882.84
2019-02-18T10:08:04.268Z,87890.45
2019-02-18T10:10:31.046Z,87885.80
2019-02-18T10:12:59.559Z,87881.80
2019-02-18T10:15:26.314Z,87882.87
2019-02-18T10:17:53.093Z,87881.17
2019-02-18T10:20:19.850Z,87881.47
2019-02-18T10:22:46.582Z,87879.08
2019-02-18T10:25:13.380Z,87876.90
2019-02-18T10:27:40.090Z,87872.19
2019-02-18T10:30:09.128Z,87872.92
2019-02-18T10:32:35.938Z,87874.51
2019-02-18T10:35:08.212Z,87862.22
2019-02-18T10:37:34.945Z,87860.34
2019-02-18T10:40:01.926Z,87863.98
2019-02-18T10:42:28.647Z,87862.52
2019-02-18T10:44:55.392Z,87850.74
2019-02-18T10:47:22.176Z,87850.77
2019-02-18T10:49:48.921Z,87848.34
2019-02-18T10:52:15.710Z,87851.13
2019-02-18T10:54:42.436Z,87841.17
2019-02-18T10:57:09.166Z,87834.73
2019-02-18T10:59:35.898Z,87834.02
2019-02-18T11:02:02.707Z,87828.82
2019-02-18T11:04:29.689Z,87822.57
2019-02-18T11:06:59.763Z,87821.42
2019-02-18T11:09:28.724Z,87815.92
2019-02-18T11:11:55.459Z,87816.02
2019-02-18T11:14:22.243Z,87812.89
2019-02-18T11:16:48.968Z,87805.94
2019-02-18T11:19:17.600Z,87800.32
2019-02-18T11:21:44.274Z,87795.88
2019-02-18T11:24:11.001Z,87795.45
2019-02-18T11:26:37.735Z,87790.66
2019-02-18T11:29:04.502Z,87785.58
2019-02-18T11:31:31.251Z,87779.81
2019-02-18T11:33:58.072Z,87773.31
2019-02-18T11:36:24.795Z,87772.66
2019-02-18T11:38:51.495Z,87768.84
2019-02-18T11:41:27.147Z,87764.16
2019-02-18T11:43:46.795Z,87753.48
2019-02-18T11:46:13.836Z,87757.19
2019-02-18T11:48:40.597Z,87748.89
2019-02-18T11:51:07.306Z,87740.52
2019-02-18T11:53:34.083Z,87738.52
2019-02-18T11:56:00.799Z,87734.58
2019-02-18T11:58:27.555Z,87736.01
2019-02-18T12:00:54.436Z,87730.16
2019-02-18T12:03:21.233Z,87725.83
2019-02-18T12:05:47.983Z,87723.83
2019-02-18T12:08:15.031Z,87727.09
2019-02-18T12:10:41.842Z,87715.63
2019-02-18T12:13:08.552Z,87713.81
2019-02-18T12:15:35.341Z,87706.18
2019-02-18T12:18:02.102Z,87708.08
2019-02-18T12:20:28.909Z,87709.85
2019-02-18T12:22:55.596Z,87702.55
2019-02-18T12:25:22.764Z,87699.89
2019-02-18T12:27:49.549Z,87695.67
2019-02-18T12:30:17.161Z,87692.71
2019-02-18T12:32:44.145Z,87695.78
2019-02-18T12:35:10.924Z,87687.14
2019-02-18T12:37:37.649Z,87689.80
2019-02-18T12:40:10.338Z,87683.92
2019-02-18T12:42:37.089Z,87677.28
2019-02-18T12:45:07.306Z,87675.18
2019-02-18T12:47:34.074Z,87670.63
2019-02-18T12:50:00.906Z,87668.87
2019-02-18T12:52:27.718Z,87666.41
2019-02-18T12:54:54.631Z,87663.75
2019-02-18T12:57:21.433Z,87655.74
2019-02-18T12:59:48.186Z,87653.27
2019-02-18T13:02:15.235Z,87647.77
2019-02-18T13:04:42.074Z,87643.92
2019-02-18T13:07:08.873Z,87645.97
2019-02-18T13:09:35.593Z,87646.51
2019-02-18T13:12:02.331Z,87644.02
2019-02-18T13:14:29.115Z,87641.16
2019-02-18T13:16:55.861Z,87633.36
2019-02-18T13:19:22.657Z,87642.17
2019-02-18T13:21:49.383Z,87637.31
2019-02-18T13:24:16.566Z,87634.77
2019-02-18T13:26:43.352Z,87631.81
2019-02-18T13:29:10.095Z,87624.15
2019-02-18T13:31:36.815Z,87629.09
2019-02-18T13:34:03.605Z,87624.95
2019-02-18T13:36:30.358Z,87631.45
2019-02-18T13:38:57.105Z,87622.97
2019-02-18T13:41:23.935Z,87625.66
2019-02-18T13:43:50.954Z,87623.24
2019-02-18T13:46:17.667Z,87627.20
2019-02-18T13:48:44.464Z,87623.23
2019-02-18T13:51:11.206Z,87619.44
2019-02-18T13:53:37.967Z,87623.05
2019-02-18T13:56:04.742Z,87624.56
2019-02-18T13:58:31.472Z,87620.93
2019-02-18T14:00:58.296Z,87624.77
2019-02-18T14:03:25.360Z,87623.19
2019-02-18T14:05:52.154Z,87630.55
2019-02-18T14:08:18.937Z,87631.45
2019-02-18T14:10:45.689Z,87627.73
2019-02-18T14:13:12.394Z,87637.42
2019-02-18T14:15:39.216Z,87631.02
2019-02-18T14:18:05.960Z,87631.72
2019-02-18T14:20:32.716Z,87630.91
2019-02-18T14:22:59.473Z,87634.09
2019-02-18T14:25:26.177Z,87627.22
2019-02-18T14:27:52.994Z,87628.55
2019-02-18T14:30:19.720Z,87633.88
2019-02-18T14:32:46.437Z,87631.19
2019-02-18T14:35:15.676Z,87636.55
2019-02-18T14:37:42.380Z,87633.50
2019-02-18T14:40:09.416Z,87632.10
2019-02-18T14:42:36.299Z,87641.30
2019-02-18T14:45:04.050Z,87635.86
2019-02-18T14:47:30.761Z,87638.15
2019-02-18T14:49:57.551Z,87636.38
2019-02-18T14:52:24.310Z,87635.19
2019-02-18T14:54:51.056Z,87636.44
2019-02-18T14:57:18.231Z,87633.67
2019-02-18T14:59:44.950Z,87629.23
2019-02-18T15:02:11.784Z,87629.02
2019-02-18T15:04:38.508Z,87632.98
2019-02-18T15:07:05.275Z,87629.95
2019-02-18T15:09:32.072Z,87634.58
2019-02-18T15:11:58.780Z,87632.66
2019-02-18T15:14:25.505Z,87639.34
2019-02-18T15:16:52.580Z,87641.45
2019-02-18T15:19:19.319Z,87635.60
2019-02-18T15:21:46.058Z,87641.93
2019-02-18T15:24:12.863Z,87641.95
2019-02-18T15:26:39.592Z,87640.02
2019-02-18T15:29:06.296Z,87642.09
2019-02-18T15:31:33.081Z,87639.08
2019-02-18T15:33:59.802Z,87641.70
2019-02-18T15:36:26.548Z,87636.05
2019-02-18T15:38:53.289Z,87637.59
2019-02-18T15:41:19.995Z,87638.14
2019-02-18T15:43:46.790Z,87642.48
2019-02-18T15:46:13.529Z,87639.55
2019-02-18T15:48:40.297Z,87642.06
2019-02-18T15:51:07.083Z,87644.99
2019-02-18T15:53:34.237Z,87643.47
2019-02-18T15:56:01.048Z,87645.65
2019-02-18T15:58:27.781Z,87639.44
2019-02-18T16:00:54.520Z,87641.72
2019-02-18T16:03:21.280Z,87640.72
2019-02-18T16:05:48.054Z,87643.33
2019-02-18T16:08:14.806Z,87646.57
2019-02-18T16:10:41.567Z,87646.91
2019-02-18T16:13:09.032Z,87652.31
2019-02-18T16:15:35.849Z,87653.62
2019-02-18T16:18:02.593Z,87652.31
2019-02-18T16:20:29.314Z,87648.61
2019-02-18T16:22:56.091Z,87652.84
2019-02-18T16:25:23.538Z,87647.50
2019-02-18T16:27:50.308Z,87658.68
2019-02-18T16:30:17.044Z,87657.67
2019-02-18T16:32:43.785Z,87658.49
2019-02-18T16:35:10.554Z,87665.33
2019-02-18T16:37:37.682Z,87672.12
2019-02-18T16:40:11.705Z,87664.30
2019-02-18T16:42:38.441Z,87670.56
2019-02-18T16:45:10.176Z,87670.66
2019-02-18T16:47:36.975Z,87667.94
2019-02-18T16:50:05.221Z,87672.91
2019-02-18T16:52:32.011Z,87677.91
2019-02-18T16:54:58.741Z,87677.66
2019-02-18T16:57:25.495Z,87677.61
2019-02-18T16:59:52.301Z,87674.30
2019-02-18T17:02:19.188Z,87681.64
2019-02-18T17:04:46.238Z,87682.59
2019-02-18T17:07:12.999Z,87691.66
2019-02-18T17:09:39.813Z,87695.66
2019-02-18T17:12:06.653Z,87696.59
2019-02-18T17:14:33.385Z,87700.91
2019-02-18T17:17:00.156Z,87696.25
2019-02-18T17:19:26.955Z,87703.60
2019-02-18T17:21:53.740Z,87702.83
2019-02-18T17:24:20.795Z,87705.44
2019-02-18T17:26:47.616Z,87705.64
2019-02-18T17:29:14.354Z,87701.00
2019-02-18T17:31:41.110Z,87706.58
2019-02-18T17:34:07.926Z,87702.69
2019-02-18T17:36:34.637Z,87709.39
2019-02-18T17:39:01.469Z,87702.65
2019-02-18T17:41:28.530Z,87708.30
2019-02-18T17:43:55.297Z,87703.98
2019-02-18T17:46:22.192Z,87708.13
2019-02-18T17:48:48.955Z,87715.69
2019-02-18T17:51:15.728Z,87709.59
2019-02-18T17:53:42.575Z,87707.58
2019-02-18T17:56:09.514Z,87709.98
2019-02-18T17:58:36.623Z,87714.77
2019-02-18T18:01:03.839Z,87717.16
2019-02-18T18:03:30.653Z,87716.48
2019-02-18T18:05:57.519Z,87715.95
2019-02-18T18:08:24.725Z,87711.61
2019-02-18T18:10:51.719Z,87712.38
2019-02-18T18:13:24.983Z,87711.08
2019-02-18T18:15:47.690Z,87712.83
2019-02-18T18:18:14.493Z,87708.12
2019-02-18T18:20:41.362Z,87713.48
2019-02-18T18:23:08.175Z,87712.58
2019-02-18T18:25:34.980Z,87715.13
2019-02-18T18:28:01.829Z,87717.12
2019-02-18T18:30:28.870Z,87715.13
2019-02-18T18:32:56.021Z,87709.27
2019-02-18T18:35:23.110Z,87711.71
2019-02-18T18:37:53.409Z,87712.80
2019-02-18T18:40:20.451Z,87711.89
2019-02-18T18:42:47.649Z,87707.78
2019-02-18T18:45:16.302Z,87709.48
2019-02-18T18:47:43.343Z,87709.63
2019-02-18T18:50:13.941Z,87713.29
2019-02-18T18:52:41.554Z,87714.66
2019-02-18T18:55:08.459Z,87714.84
2019-02-18T18:57:35.660Z,87712.09
2019-02-18T19:00:05.017Z,87707.60
2019-02-18T19:02:32.033Z,87713.39
2019-02-18T19:04:58.989Z,87715.14
2019-02-18T19:07:26.027Z,87709.44
2019-02-18T19:09:53.476Z,87717.83
2019-02-18T19:12:21.140Z,87714.86
2019-02-18T19:14:48.087Z,87718.29
2019-02-18T19:17:14.947Z,87716.61
2019-02-18T19:19:42.153Z,87715.84
2019-02-18T19:22:09.079Z,87715.60
2019-02-18T19:24:37.769Z,87713.85
2019-02-18T19:27:05.032Z,87709.05
2019-02-18T19:29:32.189Z,87709.42
2019-02-18T19:31:59.260Z,87708.37
2019-02-18T19:34:26.173Z,87709.88
2019-02-18T19:36:53.339Z,87707.59
2019-02-18T19:39:20.495Z,87710.05
2019-02-18T19:41:47.489Z,87708.06
2019-02-18T19:44:14.636Z,87714.02
2019-02-18T19:46:41.562Z,87719.36
2019-02-18T19:49:08.668Z,87718.91
2019-02-18T19:51:35.720Z,87719.81
2019-02-18T19:54:02.870Z,87722.48
2019-02-18T19:56:30.080Z,87726.58
2019-02-18T19:58:57.079Z,87727.25
2019-02-18T20:01:24.307Z,87726.58
2019-02-18T20:03:51.407Z,87727.11
2019-02-18T20:06:18.375Z,87726.86
2019-02-18T20:08:45.459Z,87732.81
2019-02-18T20:11:13.283Z,87724.58
2019-02-18T20:13:40.330Z,87729.94
2019-02-18T20:16:07.227Z,87728.47
2019-02-18T20:18:34.778Z,87729.16
2019-02-18T20:21:06.941Z,87729.83
2019-02-18T20:23:33.951Z,87731.64
2019-02-18T20:26:00.858Z,87727.76
2019-02-18T20:28:27.846Z,87726.18
2019-02-18T20:30:54.780Z,87724.33
2019-02-18T20:33:21.859Z,87724.49
2019-02-18T20:35:48.928Z,87725.23
2019-02-18T20:38:17.563Z,87722.58
2019-02-18T20:40:44.369Z,87728.77
2019-02-18T20:43:11.379Z,87723.34
2019-02-18T20:45:38.228Z,87721.91
2019-02-18T20:48:05.208Z,87721.91
2019-02-18T20:50:32.023Z,87722.12
2019-02-18T20:52:59.382Z,87716.15
2019-02-18T20:55:26.374Z,87714.39
2019-02-18T20:57:53.286Z,87716.66
2019-02-18T21:00:20.111Z,87725.41
2019-02-18T21:02:46.980Z,87728.13
2019-02-18T21:05:13.807Z,87720.98
2019-02-18T21:07:40.678Z,87718.66
2019-02-18T21:10:12.611Z,87725.08
2019-02-18T21:12:39.441Z,87727.05
2019-02-18T21:15:07.186Z,87720.47
2019-02-18T21:17:33.994Z,87726.13
2019-02-18T21:20:00.775Z,87726.94
2019-02-18T21:22:27.631Z,87723.61
2019-02-18T21:24:54.389Z,87720.31
2019-02-18T21:27:21.487Z,87715.59
2019-02-18T21:29:48.239Z,87718.19
2019-02-18T21:32:14.996Z,87715.91
2019-02-18T21:34:41.790Z,87710.85
2019-02-18T21:37:08.535Z,87713.97
2019-02-18T21:39:35.321Z,87709.12
2019-02-18T21:42:02.038Z,87710.94
2019-02-18T21:44:28.770Z,87710.27
2019-02-18T21:46:55.851Z,87708.41
2019-02-18T21:49:22.612Z,87707.18
2019-02-18T21:51:49.333Z,87711.17
2019-02-18T21:54:16.128Z,87704.08
2019-02-18T21:56:42.870Z,87704.84
2019-02-18T21:59:09.648Z,87704.67
2019-02-18T22:01:36.432Z,87705.69
2019-02-18T22:04:03.583Z,87705.34
2019-02-18T22:06:30.366Z,87711.11
2019-02-18T22:08:57.121Z,87708.89
2019-02-18T22:11:23.851Z,87703.25
2019-02-18T22:13:50.808Z,87708.48
2019-02-18T22:16:17.614Z,87704.56
2019-02-18T22:18:44.321Z,87701.85
2019-02-18T22:21:11.098Z,87702.16
2019-02-18T22:23:38.210Z,87703.45
2019-02-18T22:26:05.032Z,87701.45
2019-02-18T22:28:31.799Z,87692.30
2019-02-18T22:30:58.522Z,87696.12
2019-02-18T22:33:25.307Z,87697.47
2019-02-18T22:35:52.053Z,87691.23
2019-02-18T22:38:18.786Z,87698.30
2019-02-18T22:40:45.564Z,87692.94
2019-02-18T22:43:12.285Z,87692.01
2019-02-18T22:45:39.304Z,87691.79
2019-02-18T22:48:06.095Z,87693.24
2019-02-18T22:50:32.827Z,87685.73
2019-02-18T22:52:59.557Z,87688.23
2019-02-18T22:55:26.347Z,87688.53
2019-02-18T22:57:53.089Z,87684.19
2019-02-18T23:00:28.310Z,87687.41
2019-02-18T23:02:55.227Z,87686.08
2019-02-18T23:05:22.041Z,87691.45
2019-02-18T23:07:48.828Z,87685.09
2019-02-18T23:10:15.553Z,87691.56
2019-02-18T23:12:42.360Z,87695.25
2019-02-18T23:15:09.083Z,87694.56
2019-02-18T23:17:35.868Z,87699.08
2019-02-18T23:20:02.677Z,87698.91
2019-02-18T23:22:29.688Z,87687.86
2019-02-18T23:24:56.404Z,87692.25
2019-02-18T23:27:23.185Z,87692.97
2019-02-18T23:29:49.905Z,87687.66
2019-02-18T23:32:16.710Z,87687.39
2019-02-18T23:34:43.423Z,87687.91
2019-02-18T23:37:10.171Z,87685.08
2019-02-18T23:39:36.932Z,87685.57
2019-02-18T23:42:03.646Z,87681.09
2019-02-18T23:44:30.447Z,87681.45
2019-02-18T23:46:57.164Z,87678.61
2019-02-18T23:49:23.922Z,87681.61
2019-02-18T23:51:50.672Z,87671.58
2019-02-18T23:54:17.421Z,87677.32
2019-02-18T23:56:44.206Z,87678.75
2019-02-18T23:59:11.339Z,87677.32
